McGehee, Arkansas
Current Conditions -  °F | °C
As of 4:53 AM on Friday 19 Dec 2014 (Local Time) from KLLQ Reporting Station
Overcast Overcast  
Wind Chill: 39°   Ceiling: 4300
Heat Index: 43°   Visibility: 7mi
Dew Point: 40°   Wind: 7mph
Humidity: 89%   Direction: 30°NNE
Pressure: 30.18"   Gusts: NA
Location:  33.63°N, 91.39°W
Report Text: KLLQ 191053Z AUTO 03006KT 7SM OVC043 06/04 A3018 RMK AO2 SLP218 T00610044
Loading
Personal Weather Stations






























Interactive Weather Map New forecast layout! Learn more

10-Day Weather Forecast

Advertisements
Track Severe Weather on mobile